Time;durP1;ratioP1;P1;durP2;ratioP2;P2;SDS_P1;SDS_P2;PMS_P1;PMS_P2;Temp;Humidity;BMP_temperature;BMP_pressure;BME280_temperature;BME280_humidity;BME280_pressure;Samples;Min_cycle;Max_cycle;Signal;HPM_P1;HPM_P2
2021/12/07 01:52:31;;;;;;;19.67;2.00;;;;;;;4.47;100.00;60217.56;5112155;27;20051;-66
2021/12/07 02:00:13;;;;;;;15.37;2.10;;;;;;;4.01;100.00;60176.25;5114640;28;20341;-66
2021/12/07 02:02:40;;;;;;;15.07;2.67;;;;;;;3.99;100.00;60176.16;5100278;27;20287;-66
2021/12/07 02:05:06;;;;;;;17.17;1.70;;;;;;;3.97;100.00;60171.50;5094285;28;20771;-67
2021/12/07 02:07:31;;;;;;;13.70;2.37;;;;;;;4.10;100.00;60180.16;5094437;28;20271;-67
2021/12/07 02:10:03;;;;;;;15.67;2.33;;;;;;;4.13;100.00;60188.38;5111748;28;20032;-66
2021/12/07 02:12:32;;;;;;;18.33;3.30;;;;;;;4.06;100.00;60175.41;5103009;27;20111;-66
2021/12/07 02:14:57;;;;;;;13.93;1.80;;;;;;;4.07;100.00;60176.47;5097900;28;20390;-66
2021/12/07 02:17:25;;;;;;;17.93;3.40;;;;;;;4.14;100.00;60186.38;5114244;27;20528;-66
2021/12/07 02:19:50;;;;;;;25.87;3.23;;;;;;;4.00;100.00;60177.19;5097671;28;20035;-66
2021/12/07 02:22:17;;;;;;;24.47;2.30;;;;;;;4.04;100.00;60175.84;5106170;28;20263;-66
2021/12/07 02:24:43;;;;;;;18.50;3.10;;;;;;;3.96;100.00;60170.97;5112659;27;20051;-67
2021/12/07 02:27:08;;;;;;;19.17;3.00;;;;;;;3.85;100.00;60154.34;5093726;28;20342;-67
2021/12/07 02:29:34;;;;;;;19.27;2.83;;;;;;;3.84;100.00;60158.34;5107536;28;20034;-67
2021/12/07 02:32:01;;;;;;;10.87;2.30;;;;;;;3.71;100.00;60142.13;5110617;27;20023;-66
2021/12/07 02:34:27;;;;;;;13.47;2.90;;;;;;;3.65;100.00;60139.41;5113206;27;20169;-67
2021/12/07 02:36:54;;;;;;;20.60;2.40;;;;;;;3.72;100.00;60146.22;5096651;27;20391;-66
2021/12/07 02:39:28;;;;;;;16.30;3.07;;;;;;;3.68;100.00;60142.03;5087882;28;20535;-67
2021/12/07 02:41:54;;;;;;;21.93;3.63;;;;;;;3.76;100.00;60147.41;5089873;28;20887;-67
2021/12/07 02:44:19;;;;;;;25.10;2.90;;;;;;;3.66;100.00;60142.44;5080801;28;20295;-67
2021/12/07 02:46:44;;;;;;;17.77;2.70;;;;;;;3.51;100.00;60124.13;5076717;28;20032;-67
2021/12/07 02:49:10;;;;;;;14.50;2.97;;;;;;;3.54;100.00;60125.28;5067680;28;20057;-67
2021/12/07 02:51:36;;;;;;;20.10;1.73;;;;;;;3.55;100.00;60128.34;5059265;28;20090;-67
2021/12/07 02:54:02;;;;;;;12.07;2.37;;;;;;;3.61;100.00;60134.66;5068246;28;20047;-67
2021/12/07 02:56:27;;;;;;;11.93;2.53;;;;;;;3.65;100.00;60138.84;5067619;28;20433;-67
2021/12/07 02:58:58;;;;;;;14.13;2.97;;;;;;;3.63;100.00;60136.75;5062999;28;20304;-67
2021/12/07 03:01:29;;;;;;;16.70;2.93;;;;;;;3.72;100.00;60146.22;5058724;28;20090;-67
2021/12/07 03:04:09;;;;;;;21.03;2.87;;;;;;;3.71;100.00;60145.19;5068751;28;20745;-67
2021/12/07 03:06:53;;;;;;;14.40;2.70;;;;;;;3.75;100.00;60148.88;5062832;28;20437;-67
2021/12/07 03:26:02;;;;;;;13.27;2.13;;;;;;;3.33;100.00;60108.75;4998530;28;20271;-69
2021/12/07 03:28:29;;;;;;;22.90;3.10;;;;;;;3.23;100.00;60096.25;4990703;28;20282;-68
2021/12/07 03:30:55;;;;;;;17.47;3.30;;;;;;;3.26;100.00;60096.34;5018318;28;20278;-69
2021/12/07 03:33:21;;;;;;;19.67;2.77;;;;;;;3.17;100.00;60087.41;4996955;28;20704;-68
2021/12/07 03:35:46;;;;;;;20.77;3.40;;;;;;;3.03;100.00;60073.19;4991084;28;20053;-68
2021/12/07 03:38:12;;;;;;;18.80;2.80;;;;;;;2.99;100.00;60073.50;5008313;28;20074;-68
2021/12/07 03:40:38;;;;;;;15.70;3.30;;;;;;;3.07;100.00;60079.94;5011187;28;20042;-69
2021/12/07 03:43:04;;;;;;;20.90;3.10;;;;;;;3.03;100.00;60073.19;4984738;28;20403;-68
2021/12/07 03:45:32;;;;;;;15.30;3.30;;;;;;;2.93;100.00;60063.19;5004156;28;20519;-69
2021/12/07 03:47:59;;;;;;;21.60;3.97;;;;;;;2.85;100.00;60051.72;4979229;28;20278;-68
2021/12/07 03:50:25;;;;;;;16.20;2.90;;;;;;;2.83;100.00;60054.69;5005317;28;20273;-69
2021/12/07 03:52:52;;;;;;;22.40;2.77;;;;;;;2.79;100.00;60045.97;4997590;28;20263;-69
2021/12/07 03:55:18;;;;;;;20.87;2.83;;;;;;;2.75;100.00;60044.28;5012280;28;20278;-68
2021/12/07 03:57:44;;;;;;;15.30;3.70;;;;;;;2.76;100.00;60045.31;4985731;28;20304;-68
2021/12/07 04:00:14;;;;;;;20.00;2.40;;;;;;;2.74;100.00;60048.78;4996556;28;20290;-68
2021/12/07 04:02:40;;;;;;;20.80;4.33;;;;;;;2.74;100.00;60045.72;4978652;28;20097;-68
2021/12/07 04:05:14;;;;;;;27.97;4.33;;;;;;;2.77;100.00;60046.38;4992255;28;20263;-68
2021/12/07 04:07:41;;;;;;;13.43;2.83;;;;;;;2.67;100.00;60033.84;4990083;28;20260;-69
2021/12/07 04:10:12;;;;;;;19.90;2.30;;;;;;;2.73;100.00;60042.69;4994846;28;20271;-69
2021/12/07 04:12:37;;;;;;;27.10;3.23;;;;;;;2.71;100.00;60040.06;4998448;28;20366;-69
2021/12/07 04:15:05;;;;;;;15.00;3.63;;;;;;;2.76;100.00;60047.84;5010244;28;20514;-69
2021/12/07 04:17:30;;;;;;;18.13;2.57;;;;;;;2.85;100.00;60056.78;4995181;28;20424;-69
2021/12/07 04:19:56;;;;;;;30.83;3.20;;;;;;;2.95;100.00;60064.78;5013681;28;20341;-69
2021/12/07 04:22:21;;;;;;;23.53;3.43;;;;;;;2.96;100.00;60065.84;5024279;28;20633;-69
2021/12/07 04:24:47;;;;;;;17.20;2.20;;;;;;;2.91;100.00;60058.56;5032336;28;20453;-69
2021/12/07 04:27:12;;;;;;;14.57;2.57;;;;;;;2.90;100.00;60057.53;5035906;28;20037;-69
2021/12/07 04:29:38;;;;;;;19.13;2.53;;;;;;;2.83;100.00;60050.16;5032907;28;20030;-69
2021/12/07 04:32:04;;;;;;;10.73;2.13;;;;;;;2.77;100.00;60046.38;5020547;28;20136;-69
2021/12/07 04:34:29;;;;;;;19.37;3.13;;;;;;;2.80;100.00;60049.53;5025546;28;20516;-69
2021/12/07 04:36:55;;;;;;;19.80;2.93;;;;;;;2.85;100.00;60059.81;5003904;28;20275;-69
2021/12/07 04:39:20;;;;;;;20.07;3.20;;;;;;;2.80;100.00;60049.53;5030752;28;20037;-69
2021/12/07 04:41:48;;;;;;;20.13;2.80;;;;;;;2.84;100.00;60055.72;5033416;28;20037;-69
2021/12/07 04:44:13;;;;;;;11.70;1.93;;;;;;;2.92;100.00;60061.63;5027198;28;20703;-69
2021/12/07 04:57:49;;;;;;;14.07;2.20;;;;;;;2.92;100.00;60064.69;5021915;28;20337;-68
2021/12/07 05:00:26;;;;;;;24.20;2.80;;;;;;;2.95;100.00;60064.78;5021857;28;20511;-68
2021/12/07 05:02:57;;;;;;;14.77;2.20;;;;;;;3.02;100.00;60076.66;5021805;28;20034;-68
2021/12/07 05:05:27;;;;;;;20.70;2.57;;;;;;;2.97;100.00;60064.38;5021102;28;20263;-68
2021/12/07 05:07:55;;;;;;;10.00;2.10;;;;;;;3.00;100.00;60069.53;5021838;28;20654;-68
2021/12/07 05:11:10;;;;;;;16.63;3.63;;;;;;;2.94;100.00;60068.78;5021018;28;20298;-68
2021/12/07 05:19:00;;;;;;;12.15;1.88;;;;;;;2.85;100.00;60059.28;5021427;28;20318;-68
2021/12/07 05:39:43;;;;;;;10.20;1.90;;;;;;;2.59;100.00;60027.97;5016788;28;20564;-69
2021/12/07 05:44:55;;;;;;;18.15;2.08;;;;;;;2.58;100.00;60029.44;5113355;22;20693;-69
2021/12/07 05:47:21;;;;;;;20.83;3.23;;;;;;;2.51;100.00;60027.66;5069393;28;20305;-69
2021/12/07 05:49:47;;;;;;;15.13;2.30;;;;;;;2.55;100.00;60026.28;5073614;28;20945;-69
2021/12/07 05:52:13;;;;;;;13.43;1.87;;;;;;;2.40;100.00;60009.03;5069492;28;20276;-69
2021/12/07 05:54:38;;;;;;;14.87;2.20;;;;;;;2.38;100.00;60006.94;5061522;28;20125;-69
2021/12/07 05:57:04;;;;;;;14.80;2.23;;;;;;;2.29;100.00;59997.47;5060544;28;20056;-69
2021/12/07 05:59:30;;;;;;;17.23;2.27;;;;;;;2.36;100.00;60004.31;5062937;28;20028;-69
2021/12/07 06:01:55;;;;;;;18.80;2.70;;;;;;;2.37;100.00;60005.88;5082767;28;20342;-69
2021/12/07 06:04:21;;;;;;;18.57;2.03;;;;;;;2.38;100.00;60008.91;5070691;28;20118;-69
2021/12/07 06:19:40;;;;;;;15.43;2.20;;;;;;;2.41;100.00;60012.63;5076110;27;20394;-68
2021/12/07 06:22:06;;;;;;;20.93;2.13;;;;;;;2.55;100.00;60026.78;5081144;28;20056;-68
2021/12/07 06:24:32;;;;;;;16.00;2.03;;;;;;;2.60;100.00;60032.06;5083136;28;20464;-68
2021/12/07 06:26:59;;;;;;;10.93;1.50;;;;;;;2.62;100.00;60034.16;5081984;28;20761;-68
2021/12/07 06:29:24;;;;;;;18.30;2.23;;;;;;;2.63;100.00;60034.69;5083183;28;20261;-68
2021/12/07 06:31:50;;;;;;;15.27;2.70;;;;;;;2.69;100.00;60038.50;5082291;28;20280;-69
2021/12/07 06:34:15;;;;;;;15.80;1.97;;;;;;;2.72;100.00;60046.16;5084077;28;20121;-67
2021/12/07 06:36:41;;;;;;;13.17;2.43;;;;;;;2.75;100.00;60046.78;5082671;28;20054;-68
2021/12/07 06:39:07;;;;;;;10.57;2.10;;;;;;;2.77;100.00;60048.88;5082321;28;20488;-68
2021/12/07 06:41:33;;;;;;;17.33;4.23;;;;;;;2.71;100.00;60048.13;5082303;28;20052;-68
2021/12/07 06:44:00;;;;;;;15.40;1.90;;;;;;;2.51;100.00;60024.59;5081099;28;20287;-68
2021/12/07 06:46:26;;;;;;;10.07;2.30;;;;;;;2.46;100.00;60017.34;5075463;28;20644;-68
2021/12/07 06:48:51;;;;;;;18.07;3.07;;;;;;;2.49;100.00;60025.00;5081811;28;20269;-68
2021/12/07 06:51:17;;;;;;;20.10;3.53;;;;;;;2.42;100.00;60016.19;5080771;28;20819;-68
2021/12/07 06:53:42;;;;;;;21.17;3.77;;;;;;;2.39;100.00;60009.97;5078262;28;20420;-68
2021/12/07 06:56:09;;;;;;;17.63;2.90;;;;;;;2.33;100.00;60001.16;5080898;28;20066;-68
2021/12/07 06:58:35;;;;;;;18.27;3.13;;;;;;;2.32;100.00;60000.63;5080730;28;20044;-68
2021/12/07 07:01:06;;;;;;;14.20;3.27;;;;;;;2.31;100.00;60001.56;5081063;28;20300;-68
2021/12/07 07:03:35;;;;;;;18.13;3.47;;;;;;;2.14;100.00;59979.19;5080312;28;20609;-68
2021/12/07 07:06:01;;;;;;;17.77;3.33;;;;;;;2.14;100.00;59984.22;5078471;28;20265;-68
2021/12/07 07:08:27;;;;;;;17.23;3.20;;;;;;;2.01;100.00;59971.09;5075315;28;20385;-68
2021/12/07 07:10:52;;;;;;;18.93;3.80;;;;;;;1.89;100.00;59959.00;5081109;28;20265;-68
2021/12/07 07:13:18;;;;;;;18.27;3.90;;;;;;;1.84;100.00;59954.28;5080696;28;20594;-68
2021/12/07 07:15:43;;;;;;;39.40;5.67;;;;;;;1.80;100.00;59954.56;5081301;28;20131;-68
2021/12/07 07:18:09;;;;;;;16.03;2.80;;;;;;;1.73;100.00;59948.25;5079372;28;20040;-68
2021/12/07 07:20:35;;;;;;;12.50;3.00;;;;;;;1.64;100.00;59931.25;5079913;28;20075;-68
2021/12/07 07:23:00;;;;;;;14.27;2.67;;;;;;;1.47;100.00;59913.41;5070867;28;20043;-68
2021/12/07 07:25:26;;;;;;;16.27;3.53;;;;;;;1.44;100.00;59913.28;5080127;28;20769;-68
2021/12/07 07:27:51;;;;;;;20.93;3.80;;;;;;;1.55;100.00;59919.31;5076566;28;20507;-68
2021/12/07 07:30:18;;;;;;;16.93;3.57;;;;;;;1.43;100.00;59906.69;5070041;28;20040;-68
2021/12/07 07:32:46;;;;;;;14.07;3.30;;;;;;;1.52;100.00;59921.16;5067418;28;20040;-68
2021/12/07 07:35:15;;;;;;;14.30;3.23;;;;;;;1.39;100.00;59910.56;5067148;28;20777;-68
2021/12/07 07:37:41;;;;;;;19.20;3.67;;;;;;;1.47;100.00;59911.41;5066720;28;20316;-68
2021/12/07 07:40:10;;;;;;;25.57;3.63;;;;;;;1.52;100.00;59919.19;5066647;28;20293;-68
2021/12/07 07:42:35;;;;;;;19.37;2.47;;;;;;;1.60;100.00;59926.53;5065260;28;20040;-68
2021/12/07 07:45:02;;;;;;;13.57;3.17;;;;;;;1.59;100.00;59925.47;5067130;28;20296;-68
2021/12/07 07:47:28;;;;;;;17.20;3.37;;;;;;;1.49;100.00;59918.53;5066206;28;20098;-68
2021/12/07 07:49:53;;;;;;;18.70;3.20;;;;;;;1.48;100.00;59916.97;5066473;28;20270;-68
2021/12/07 07:52:18;;;;;;;18.27;2.93;;;;;;;1.53;100.00;59922.22;5064151;28;20048;-68
2021/12/07 07:54:44;;;;;;;30.97;4.57;;;;;;;1.59;100.00;59928.50;5067234;28;20040;-68
2021/12/07 07:57:09;;;;;;;17.67;4.00;;;;;;;1.64;100.00;59930.75;5067146;28;20055;-68
2021/12/07 07:59:36;;;;;;;15.60;2.97;;;;;;;1.66;100.00;59930.84;5058982;28;20056;-68
2021/12/07 08:02:02;;;;;;;18.53;3.80;;;;;;;1.60;100.00;59929.56;5059600;28;20469;-68
2021/12/07 08:04:28;;;;;;;22.30;3.90;;;;;;;1.58;100.00;59930.00;5065711;28;20289;-68
2021/12/07 08:06:53;;;;;;;17.30;3.97;;;;;;;1.63;100.00;59929.69;5058493;28;20837;-68
2021/12/07 08:09:19;;;;;;;25.17;4.77;;;;;;;1.76;100.00;59945.34;5051176;28;20044;-68
2021/12/07 08:11:44;;;;;;;25.20;5.77;;;;;;;1.81;100.00;59950.59;5061862;28;20385;-69
2021/12/07 08:14:09;;;;;;;12.30;4.87;;;;;;;1.87;100.00;59959.94;5066619;28;20036;-68
2021/12/07 08:16:35;;;;;;;18.57;5.70;;;;;;;1.88;100.00;59958.47;5066499;28;20121;-68
2021/12/07 08:19:01;;;;;;;29.67;6.37;;;;;;;1.78;100.00;59949.94;5059556;28;20049;-68
2021/12/07 08:21:27;;;;;;;27.97;6.20;;;;;;;1.76;100.00;59945.34;5056990;28;20094;-68
2021/12/07 08:23:52;;;;;;;29.63;6.33;;;;;;;1.76;100.00;59945.34;5062983;28;20277;-68
2021/12/07 08:26:21;;;;;;;27.53;6.63;;;;;;;1.80;100.00;59947.03;5065089;28;20052;-69
2021/12/07 08:28:46;;;;;;;31.97;7.43;;;;;;;1.71;100.00;59943.66;5065907;28;20040;-68
2021/12/07 08:31:12;;;;;;;36.10;7.33;;;;;;;1.75;100.00;59944.81;5065190;28;20354;-68
2021/12/07 08:33:37;;;;;;;35.67;7.33;;;;;;;1.77;100.00;59941.34;5065532;28;20361;-68
2021/12/07 08:36:03;;;;;;;36.20;7.73;;;;;;;1.79;100.00;59945.97;5065357;28;20041;-68
2021/12/07 08:38:29;;;;;;;33.47;9.67;;;;;;;1.86;100.00;59955.84;5064543;28;20510;-68
2021/12/07 08:40:56;;;;;;;34.27;7.60;;;;;;;1.86;100.00;59953.34;5060879;28;20270;-68
2021/12/07 08:43:24;;;;;;;32.87;9.00;;;;;;;1.91;100.00;59961.63;5063440;28;20273;-69
2021/12/07 08:45:51;;;;;;;44.00;8.67;;;;;;;1.96;100.00;59968.88;5066306;28;20293;-68
2021/12/07 08:48:17;;;;;;;34.43;7.93;;;;;;;2.01;100.00;59966.56;5059516;28;20627;-68
2021/12/07 08:50:44;;;;;;;27.00;7.00;;;;;;;2.05;100.00;59975.28;5064879;28;20261;-67
2021/12/07 08:53:12;;;;;;;32.47;9.60;;;;;;;2.08;100.00;59976.44;5064748;28;20368;-68
2021/12/07 09:01:13;;;;;;;43.77;9.50;;;;;;;2.33;100.00;60001.16;5064131;28;20836;-68
2021/12/07 09:03:38;;;;;;;35.13;8.43;;;;;;;2.31;100.00;59999.59;5064039;28;20850;-68
2021/12/07 09:06:04;;;;;;;36.87;8.87;;;;;;;2.38;100.00;60003.88;5065065;28;20277;-68
2021/12/07 09:08:30;;;;;;;36.57;9.13;;;;;;;2.35;100.00;60008.81;5064165;28;20097;-68
2021/12/07 09:10:55;;;;;;;42.60;10.00;;;;;;;2.37;100.00;60008.41;5065227;28;20281;-68
2021/12/07 09:13:23;;;;;;;39.63;8.93;;;;;;;2.48;100.00;60024.47;5064556;28;20040;-69
2021/12/07 09:15:50;;;;;;;44.13;10.37;;;;;;;2.50;100.00;60021.00;5061125;28;20093;-68
2021/12/07 09:18:15;;;;;;;39.60;10.70;;;;;;;2.47;100.00;60015.34;5063688;28;20266;-68
2021/12/07 09:20:41;;;;;;;43.67;10.07;;;;;;;2.56;100.00;60024.81;5058536;28;20766;-68
2021/12/07 09:23:06;;;;;;;48.23;10.47;;;;;;;2.63;100.00;60029.66;5064664;28;20152;-68
2021/12/07 09:25:32;;;;;;;34.70;9.93;;;;;;;2.69;100.00;60038.50;5064372;28;20128;-68
2021/12/07 09:27:58;;;;;;;42.03;10.20;;;;;;;2.70;100.00;60041.53;5060008;28;20595;-68
2021/12/07 09:30:24;;;;;;;43.67;10.43;;;;;;;2.77;100.00;60046.91;5060068;28;20048;-68
2021/12/07 09:32:50;;;;;;;41.13;9.80;;;;;;;2.82;100.00;60051.09;5060919;28;20132;-68
2021/12/07 09:35:16;;;;;;;39.73;9.60;;;;;;;2.86;100.00;60058.38;5062894;28;20373;-67
2021/12/07 09:37:41;;;;;;;39.20;9.37;;;;;;;2.91;100.00;60063.09;5063715;28;20500;-68
2021/12/07 09:40:11;;;;;;;39.83;10.40;;;;;;;3.02;100.00;60074.13;5062544;28;20323;-68
2021/12/07 09:42:37;;;;;;;50.23;11.10;;;;;;;3.10;100.00;60085.59;5062468;28;20420;-68
2021/12/07 09:45:06;;;;;;;42.87;9.97;;;;;;;3.09;100.00;60079.50;5064463;28;20285;-68
2021/12/07 09:47:31;;;;;;;36.83;9.50;;;;;;;3.20;100.00;60090.03;5055011;28;20056;-68
2021/12/07 09:49:56;;;;;;;35.53;8.47;;;;;;;3.33;100.00;60103.72;5063687;28;20280;-68
2021/12/07 09:52:24;;;;;;;37.90;8.80;;;;;;;3.38;100.00;60110.97;5060074;28;20048;-68
2021/12/07 09:54:51;;;;;;;40.90;8.73;;;;;;;3.44;100.00;60114.75;5062964;28;20051;-68
2021/12/07 09:57:16;;;;;;;30.20;8.40;;;;;;;3.48;100.00;60119.50;5060997;28;20277;-68
2021/12/07 09:59:42;;;;;;;29.30;8.87;;;;;;;3.57;100.00;60122.88;5063454;28;20277;-68
2021/12/07 10:02:07;;;;;;;28.23;7.27;;;;;;;3.68;100.00;60139.50;5064369;28;20037;-68
2021/12/07 10:04:33;;;;;;;28.17;8.30;;;;;;;3.80;100.00;60151.63;5064244;28;20041;-68
2021/12/07 10:07:00;;;;;;;42.83;8.53;;;;;;;3.84;100.00;60156.34;5064502;28;20087;-68
2021/12/07 10:09:26;;;;;;;36.67;8.23;;;;;;;3.89;100.00;60161.09;5058497;28;20821;-68
2021/12/07 10:11:53;;;;;;;26.40;7.07;;;;;;;3.93;100.00;60164.75;5053197;28;20360;-68
2021/12/07 10:14:19;;;;;;;36.87;7.97;;;;;;;4.01;100.00;60170.66;5061381;28;20130;-68
2021/12/07 10:16:48;;;;;;;28.27;6.63;;;;;;;4.00;100.00;60175.19;5064192;28;20701;-68
2021/12/07 10:19:26;;;;;;;37.60;7.70;;;;;;;4.14;100.00;60186.88;5062786;28;20289;-68
2021/12/07 10:22:01;;;;;;;25.10;6.70;;;;;;;4.26;100.00;60198.47;5063933;28;20327;-68
2021/12/07 10:24:37;;;;;;;21.23;5.93;;;;;;;4.31;100.00;60203.75;5060826;28;20277;-67
2021/12/07 10:27:03;;;;;;;;;;;;;;;4.34;100.00;60209.44;5064478;28;20493;-68
2021/12/07 10:29:28;;;;;;;22.33;7.00;;;;;;;4.42;100.00;60215.31;5062543;28;19925;-68
2021/12/07 10:32:00;;;;;;;20.17;5.90;;;;;;;4.44;100.00;60219.97;5063973;28;20037;-68
2021/12/07 10:34:30;;;;;;;14.47;4.37;;;;;;;4.53;100.00;60226.41;5062929;28;20044;-67
2021/12/07 10:37:06;;;;;;;35.97;5.57;;;;;;;4.53;100.00;60226.94;5063058;28;20270;-68
2021/12/07 10:39:35;;;;;;;29.20;7.20;;;;;;;4.66;100.00;60242.09;5060248;28;20335;-68
2021/12/07 10:42:05;;;;;;;21.60;5.83;;;;;;;4.82;100.00;60253.38;5062599;28;20265;-68
2021/12/07 10:44:34;;;;;;;18.17;4.23;;;;;;;4.82;100.00;60250.84;5063029;28;20683;-68
2021/12/07 10:47:05;;;;;;;23.90;6.83;;;;;;;4.97;100.00;60274.25;5062863;28;20344;-68
2021/12/07 10:49:35;;;;;;;21.30;4.83;;;;;;;4.94;100.00;60271.09;5062818;28;20309;-68
2021/12/07 10:52:09;;;;;;;20.57;5.03;;;;;;;5.18;100.00;60292.81;5062319;28;20757;-68
2021/12/07 10:54:45;;;;;;;14.87;4.13;;;;;;;5.15;100.00;60292.69;5063363;28;20411;-68
2021/12/07 10:57:16;;;;;;;22.43;5.00;;;;;;;5.24;100.00;60299.66;5063338;28;20774;-68
2021/12/07 10:59:53;;;;;;;19.17;4.53;;;;;;;5.37;100.00;60309.78;5056000;28;20444;-68
2021/12/07 11:02:19;;;;;;;15.57;3.83;;;;;;;5.35;100.00;60312.75;5063024;28;20690;-68
2021/12/07 11:04:46;;;;;;;16.93;4.17;;;;;;;5.41;100.00;60319.06;5064465;28;20274;-68
2021/12/07 11:07:19;;;;;;;21.50;4.70;;;;;;;5.51;100.00;60326.56;5067193;28;20277;-68
2021/12/07 11:10:09;;;;;;;19.90;4.33;;;;;;;5.57;100.00;60335.94;5060272;28;20265;-68
2021/12/07 11:12:46;;;;;;;15.87;3.70;;;;;;;5.66;100.00;60341.84;5066528;28;20269;-68
2021/12/07 11:15:18;;;;;;;15.10;5.23;;;;;;;5.74;100.00;60350.81;5066591;28;20257;-68
2021/12/07 11:17:44;;;;;;;14.00;4.03;;;;;;;5.69;100.00;60345.00;5067467;28;20336;-68
2021/12/07 11:20:12;;;;;;;17.70;4.27;;;;;;;5.75;100.00;60354.41;5060537;28;20722;-68
2021/12/07 11:22:42;;;;;;;21.03;4.60;;;;;;;5.90;100.00;60364.13;5059850;28;20363;-68
2021/12/07 11:25:09;;;;;;;11.60;3.40;;;;;;;5.97;100.00;60376.03;5066488;28;20360;-68
2021/12/07 11:30:29;;;;;;;19.37;4.23;;;;;;;5.97;100.00;60374.03;5066344;28;20355;-68
2021/12/07 11:32:56;;;;;;;;;;;;;;;6.16;100.00;60393.56;5056731;28;20278;-68
2021/12/07 11:35:29;;;;;;;18.63;4.30;;;;;;;6.20;100.00;60397.28;5051876;28;20377;-68
2021/12/07 11:38:00;;;;;;;11.97;3.17;;;;;;;6.17;100.00;60394.09;5054621;28;20280;-68
2021/12/07 11:40:37;;;;;;;11.97;3.13;;;;;;;6.14;100.00;60388.94;5054781;28;20281;-68
2021/12/07 11:43:15;;;;;;;12.00;2.90;;;;;;;6.24;100.00;60398.97;5055448;28;20284;-68
2021/12/07 11:45:42;;;;;;;13.03;3.53;;;;;;;6.34;100.00;60414.59;5055922;28;20262;-68
2021/12/07 11:48:08;;;;;;;14.30;3.63;;;;;;;6.50;100.00;60428.41;5054035;28;20346;-68
2021/12/07 11:50:35;;;;;;;17.33;3.37;;;;;;;6.56;100.00;60441.81;5056397;28;20844;-68
2021/12/07 11:53:03;;;;;;;11.43;4.03;;;;;;;6.39;100.00;60419.84;5056765;28;20374;-68
2021/12/07 11:55:29;;;;;;;15.17;3.30;;;;;;;6.71;100.00;60447.50;5056211;28;20334;-68
2021/12/07 11:57:55;;;;;;;11.03;3.20;;;;;;;6.57;100.00;60432.72;5054716;28;20290;-68
2021/12/07 12:00:35;;;;;;;14.63;3.23;;;;;;;6.68;100.00;60446.88;5055379;28;20700;-68
2021/12/07 12:03:04;;;;;;;15.10;3.60;;;;;;;6.67;100.00;60445.31;5049894;28;20029;-68
2021/12/07 12:05:29;;;;;;;15.47;3.20;;;;;;;6.70;100.00;60451.53;5051107;28;20270;-68
2021/12/07 12:07:56;;;;;;;14.90;3.40;;;;;;;6.75;100.00;60456.28;5052242;28;20282;-68
2021/12/07 12:10:22;;;;;;;16.70;4.20;;;;;;;6.86;100.00;60465.34;5053337;28;20041;-68
2021/12/07 12:13:15;;;;;;;14.00;4.73;;;;;;;6.74;100.00;60450.16;5051204;28;20272;-68
2021/12/07 12:16:10;;;;;;;16.30;4.00;;;;;;;6.65;100.00;60443.72;5050782;28;20109;-68
2021/12/07 12:18:59;;;;;;;15.83;4.10;;;;;;;6.76;100.00;60452.25;5056208;28;20653;-68
2021/12/07 12:21:33;;;;;;;14.03;3.20;;;;;;;6.79;100.00;60461.03;5051243;28;20273;-68
2021/12/07 12:24:12;;;;;;;17.17;3.43;;;;;;;6.60;100.00;60433.34;5050516;28;20271;-68
2021/12/07 12:26:37;;;;;;;18.30;4.20;;;;;;;6.74;100.00;60445.59;5050339;28;20669;-68
2021/12/07 12:29:16;;;;;;;17.90;3.70;;;;;;;6.88;100.00;60470.03;5049417;28;20278;-68
2021/12/07 12:31:52;;;;;;;21.47;3.93;;;;;;;6.87;100.00;60463.38;5052085;28;20044;-68
2021/12/07 12:34:30;;;;;;;11.37;3.37;;;;;;;6.99;100.00;60473.50;5050069;28;20297;-68
2021/12/07 12:37:17;;;;;;;20.27;3.40;;;;;;;6.67;100.00;60447.84;5050119;28;20274;-68
2021/12/07 12:39:57;;;;;;;12.00;3.43;;;;;;;6.93;100.00;60470.22;5058301;28;20361;-68
2021/12/07 12:42:31;;;;;;;16.30;4.30;;;;;;;7.03;100.00;60482.28;5065439;28;20258;-68
2021/12/07 12:44:59;;;;;;;15.13;3.77;;;;;;;6.77;100.00;60450.78;5065599;28;20278;-68
2021/12/07 12:47:26;;;;;;;13.40;4.47;;;;;;;6.71;100.00;60449.53;5064818;28;20285;-68
2021/12/07 12:49:52;;;;;;;18.20;3.53;;;;;;;6.66;100.00;60447.31;5065336;28;20281;-68
2021/12/07 12:52:38;;;;;;;14.43;3.33;;;;;;;6.70;100.00;60445.94;5064782;28;20315;-68
2021/12/07 12:55:04;;;;;;;11.73;3.42;;;;;;;6.81;100.00;60457.56;5064543;28;20040;-68
2021/12/07 12:57:29;;;;;;;10.70;3.53;;;;;;;6.94;100.00;60473.28;5064051;28;20492;-68
2021/12/07 12:59:54;;;;;;;16.30;3.77;;;;;;;7.06;100.00;60488.50;5057815;28;20296;-68
2021/12/07 13:02:20;;;;;;;13.80;3.30;;;;;;;7.10;100.00;60492.72;5060740;28;20058;-68
2021/12/07 13:05:02;;;;;;;8.50;2.70;;;;;;;6.93;100.00;60477.81;5052476;28;20646;-68
2021/12/07 13:07:28;;;;;;;17.80;3.93;;;;;;;6.85;100.00;60456.72;5050306;28;20139;-68
2021/12/07 13:10:00;;;;;;;10.50;2.83;;;;;;;6.83;100.00;60462.19;5051803;28;20850;-68
2021/12/07 13:12:32;;;;;;;12.87;2.40;;;;;;;6.71;100.00;60452.59;5062537;28;20036;-69
2021/12/07 13:15:10;;;;;;;9.30;3.10;;;;;;;6.71;100.00;60447.00;5063594;28;20281;-69
2021/12/07 13:17:44;;;;;;;18.73;3.13;;;;;;;6.58;100.00;60436.84;5062224;28;20772;-68
2021/12/07 13:20:22;;;;;;;20.27;3.03;;;;;;;6.55;100.00;60433.69;5062092;28;20281;-68
2021/12/07 13:22:55;;;;;;;19.33;3.97;;;;;;;6.40;100.00;60418.38;5062065;28;20423;-68
2021/12/07 13:25:25;;;;;;;17.70;3.37;;;;;;;6.49;100.00;60429.38;5062978;28;20261;-68
2021/12/07 13:28:26;;;;;;;14.90;3.10;;;;;;;6.43;100.00;60421.03;5064321;28;20315;-68
2021/12/07 13:30:59;;;;;;;12.87;2.70;;;;;;;6.38;100.00;60420.81;5061167;28;20288;-68
2021/12/07 13:33:35;;;;;;;16.83;3.23;;;;;;;6.32;100.00;60406.88;5056441;28;20282;-68
2021/12/07 13:36:21;;;;;;;11.48;2.83;;;;;;;6.34;100.00;60406.97;5049699;28;20262;-68
2021/12/07 13:38:46;;;;;;;;;;;;;;;6.23;100.00;60398.41;5060287;28;20047;-68
2021/12/07 13:41:14;;;;;;;12.40;3.17;;;;;;;6.17;100.00;60392.09;5060037;28;20412;-68
2021/12/07 13:43:46;;;;;;;13.23;2.80;;;;;;;6.13;100.00;60392.41;5063974;28;21127;-69
2021/12/07 13:46:17;;;;;;;14.60;3.90;;;;;;;5.95;100.00;60374.97;5061916;28;20312;-68
2021/12/07 13:48:46;;;;;;;15.90;3.40;;;;;;;5.91;100.00;60362.63;5064757;28;20313;-68
2021/12/07 13:51:14;;;;;;;14.00;3.10;;;;;;;5.76;100.00;60354.94;5064254;28;20322;-68
2021/12/07 13:53:42;;;;;;;17.13;2.77;;;;;;;5.65;100.00;60345.84;5063012;28;20261;-68
2021/12/07 13:56:09;;;;;;;16.33;3.07;;;;;;;5.73;100.00;60349.75;5055778;28;20261;-68
2021/12/07 13:58:53;;;;;;;12.73;2.97;;;;;;;5.83;100.00;60364.31;5061278;28;20384;-68
2021/12/07 14:01:19;;;;;;;18.03;3.60;;;;;;;5.85;100.00;60366.94;5063430;28;20788;-68
2021/12/07 14:03:46;;;;;;;14.83;3.47;;;;;;;5.77;100.00;60351.44;5064099;28;20789;-68
2021/12/07 14:06:12;;;;;;;15.50;3.27;;;;;;;5.67;100.00;60343.44;5058294;28;20278;-68
2021/12/07 14:08:37;;;;;;;18.57;3.70;;;;;;;5.50;100.00;60331.06;5061366;28;20360;-68
2021/12/07 14:11:03;;;;;;;11.37;3.10;;;;;;;5.49;100.00;60324.97;5061227;28;20356;-69
2021/12/07 14:13:28;;;;;;;14.03;3.40;;;;;;;5.48;100.00;60323.41;5063122;28;20044;-68
2021/12/07 14:15:54;;;;;;;20.93;3.67;;;;;;;5.40;100.00;60312.94;5062395;28;20130;-68
2021/12/07 14:18:24;;;;;;;18.23;3.63;;;;;;;5.39;100.00;60309.91;5062273;28;20044;-68
2021/12/07 14:20:58;;;;;;;15.10;2.80;;;;;;;5.35;100.00;60315.28;5064343;28;20198;-68
2021/12/07 14:23:23;;;;;;;20.00;3.33;;;;;;;5.32;100.00;60310.09;5062914;28;20269;-68
2021/12/07 14:25:54;;;;;;;14.50;3.30;;;;;;;5.31;100.00;60308.50;5064318;28;20296;-68
2021/12/07 14:28:29;;;;;;;13.80;3.57;;;;;;;5.24;100.00;60299.13;5063557;28;20123;-68
2021/12/07 14:31:00;;;;;;;18.17;3.30;;;;;;;5.26;100.00;60308.84;5064455;28;20364;-68
2021/12/07 14:33:26;;;;;;;17.97;3.40;;;;;;;5.27;100.00;60301.75;5062736;28;20765;-69
2021/12/07 14:35:52;;;;;;;11.00;3.60;;;;;;;5.12;100.00;60281.94;5064389;28;20261;-69
2021/12/07 14:38:18;;;;;;;15.80;2.97;;;;;;;5.17;100.00;60296.81;5060268;28;20769;-68
2021/12/07 14:40:44;;;;;;;18.07;3.07;;;;;;;5.17;100.00;60294.81;5066950;28;20048;-69
2021/12/07 14:43:10;;;;;;;17.93;4.03;;;;;;;5.13;100.00;60285.00;5067320;28;20127;-69
2021/12/07 14:45:37;;;;;;;21.50;3.57;;;;;;;5.15;100.00;60289.63;5068028;28;20285;-68